SDG096 LIRP-LIBD
Flight info
| Callsign | SDG096 |
|---|---|
| Flight time | 1h 5m |
| Altitude | 31000 |
| Route | DOCME ELB M729 PNZ M603 SOR M742 BUMOK |
| Aircraft | A321/M-SDE3FGHIRWY/C |
Departure
| Time | 2026-05-07 12:12 |
|---|---|
| Airport | Pisa International Airport (LIRP) |
Arrival
| Time | 2026-05-07 13:17 |
|---|---|
| Airport | Bari Karol Wojtyła International Airport (LIBD) |
| Time | Latitude | Longitude | Altitude | Speed | Heading |
|---|---|---|---|---|---|
| 2026-05-07 12:07 | 43.69552 | 10.39959 | 10 ft | 0 kts | 139° |
| 2026-05-07 12:08 | 43.69548 | 10.39967 | 10 ft | 3 kts | 102° |
| 2026-05-07 12:09 | 43.69544 | 10.40016 | 10 ft | 6 kts | 96° |
| 2026-05-07 12:09 | 43.69517 | 10.40064 | 9 ft | 8 kts | 170° |
| 2026-05-07 12:09 | 43.69488 | 10.40020 | 9 ft | 4 kts | 317° |
| 2026-05-07 12:09 | 43.69525 | 10.40006 | 9 ft | 5 kts | 353° |
| 2026-05-07 12:10 | 43.69554 | 10.40031 | 10 ft | 5 kts | 67° |
| 2026-05-07 12:10 | 43.69569 | 10.40070 | 10 ft | 2 kts | 119° |
| 2026-05-07 12:10 | 43.69530 | 10.40066 | 10 ft | 7 kts | 186° |
| 2026-05-07 12:10 | 43.69467 | 10.40083 | 9 ft | 10 kts | 165° |
| 2026-05-07 12:11 | 43.69393 | 10.40104 | 9 ft | 11 kts | 184° |
| 2026-05-07 12:11 | 43.69286 | 10.40028 | 9 ft | 43 kts | 214° |
| 2026-05-07 12:11 | 43.68791 | 10.39527 | 9 ft | 132 kts | 214° |
| 2026-05-07 12:11 | 43.67904 | 10.38615 | 515 ft | 165 kts | 220° |
| 2026-05-07 12:12 | 43.67118 | 10.37762 | 1712 ft | 150 kts | 219° |
| 2026-05-07 12:12 | 43.66156 | 10.36880 | 2264 ft | 177 kts | 209° |
| 2026-05-07 12:12 | 43.65070 | 10.36006 | 3123 ft | 195 kts | 211° |
| 2026-05-07 12:12 | 43.63921 | 10.34995 | 3926 ft | 199 kts | 213° |
| 2026-05-07 12:13 | 43.62726 | 10.33886 | 4372 ft | 214 kts | 214° |
| 2026-05-07 12:13 | 43.61384 | 10.32881 | 4779 ft | 230 kts | 195° |
| 2026-05-07 12:13 | 43.59753 | 10.32772 | 5261 ft | 244 kts | 173° |
| 2026-05-07 12:13 | 43.58053 | 10.32925 | 5811 ft | 253 kts | 189° |
| 2026-05-07 12:14 | 43.56354 | 10.32111 | 6269 ft | 266 kts | 206° |
| 2026-05-07 12:14 | 43.54666 | 10.31029 | 6978 ft | 270 kts | 205° |
| 2026-05-07 12:14 | 43.52951 | 10.29985 | 7763 ft | 272 kts | 204° |
| 2026-05-07 12:14 | 43.51229 | 10.28980 | 8509 ft | 274 kts | 204° |
| 2026-05-07 12:15 | 43.49455 | 10.27973 | 9244 ft | 277 kts | 204° |
| 2026-05-07 12:15 | 43.47681 | 10.26985 | 9939 ft | 279 kts | 204° |
| 2026-05-07 12:15 | 43.45889 | 10.25996 | 10523 ft | 286 kts | 204° |
| 2026-05-07 12:15 | 43.43980 | 10.24948 | 10845 ft | 302 kts | 204° |
| 2026-05-07 12:16 | 43.41976 | 10.23854 | 11149 ft | 318 kts | 204° |
| 2026-05-07 12:16 | 43.39893 | 10.22717 | 11442 ft | 334 kts | 203° |
| 2026-05-07 12:16 | 43.37662 | 10.21506 | 11739 ft | 350 kts | 203° |
| 2026-05-07 12:16 | 43.35362 | 10.20264 | 12020 ft | 365 kts | 203° |
| 2026-05-07 12:17 | 43.32941 | 10.18958 | 12289 ft | 381 kts | 203° |
| 2026-05-07 12:17 | 43.30445 | 10.17612 | 12589 ft | 394 kts | 203° |
| 2026-05-07 12:17 | 43.27882 | 10.16233 | 13143 ft | 400 kts | 203° |
| 2026-05-07 12:17 | 43.25285 | 10.14837 | 13836 ft | 402 kts | 203° |
| 2026-05-07 12:18 | 43.22683 | 10.13438 | 14469 ft | 405 kts | 203° |
| 2026-05-07 12:18 | 43.20081 | 10.12039 | 15063 ft | 408 kts | 204° |
| 2026-05-07 12:18 | 43.17400 | 10.10630 | 15657 ft | 413 kts | 200° |
| 2026-05-07 12:18 | 43.14574 | 10.09980 | 16192 ft | 423 kts | 183° |
| 2026-05-07 12:19 | 43.11653 | 10.10599 | 16817 ft | 431 kts | 165° |
| 2026-05-07 12:19 | 43.08948 | 10.12342 | 17530 ft | 434 kts | 154° |
| 2026-05-07 12:19 | 43.06335 | 10.14355 | 18228 ft | 433 kts | 154° |
| 2026-05-07 12:19 | 43.03729 | 10.16381 | 18796 ft | 435 kts | 154° |
| 2026-05-07 12:20 | 43.01074 | 10.18430 | 19331 ft | 436 kts | 154° |
| 2026-05-07 12:20 | 42.98436 | 10.20449 | 19831 ft | 439 kts | 155° |
| 2026-05-07 12:20 | 42.95777 | 10.22471 | 20295 ft | 441 kts | 155° |
| 2026-05-07 12:20 | 42.93092 | 10.24506 | 20745 ft | 444 kts | 155° |
| 2026-05-07 12:21 | 42.90406 | 10.26535 | 21176 ft | 447 kts | 155° |
| 2026-05-07 12:21 | 42.87677 | 10.28589 | 21597 ft | 450 kts | 155° |
| 2026-05-07 12:21 | 42.84911 | 10.30663 | 21993 ft | 454 kts | 156° |
| 2026-05-07 12:21 | 42.82163 | 10.32723 | 22385 ft | 457 kts | 156° |
| 2026-05-07 12:22 | 42.79376 | 10.34818 | 22790 ft | 459 kts | 156° |
| 2026-05-07 12:22 | 42.76617 | 10.36922 | 23188 ft | 463 kts | 154° |
| 2026-05-07 12:22 | 42.73922 | 10.39366 | 23587 ft | 469 kts | 148° |
| 2026-05-07 12:22 | 42.71392 | 10.42200 | 24067 ft | 473 kts | 142° |
| 2026-05-07 12:23 | 42.69074 | 10.45353 | 24625 ft | 474 kts | 138° |
| 2026-05-07 12:23 | 42.66836 | 10.48624 | 25099 ft | 474 kts | 138° |
| 2026-05-07 12:23 | 42.64612 | 10.51912 | 25444 ft | 476 kts | 138° |
| 2026-05-07 12:23 | 42.62358 | 10.55239 | 25762 ft | 479 kts | 138° |
| 2026-05-07 12:24 | 42.60129 | 10.58516 | 26096 ft | 481 kts | 138° |
| 2026-05-07 12:24 | 42.57868 | 10.61829 | 26533 ft | 480 kts | 139° |
| 2026-05-07 12:24 | 42.55600 | 10.65144 | 26989 ft | 479 kts | 140° |
| 2026-05-07 12:24 | 42.53309 | 10.68493 | 27401 ft | 479 kts | 140° |
| 2026-05-07 12:25 | 42.51127 | 10.71682 | 27779 ft | 478 kts | 140° |
| 2026-05-07 12:25 | 42.48827 | 10.75031 | 28156 ft | 478 kts | 140° |
| 2026-05-07 12:25 | 42.46564 | 10.78317 | 28480 ft | 479 kts | 140° |
| 2026-05-07 12:25 | 42.44302 | 10.81598 | 28811 ft | 479 kts | 141° |
| 2026-05-07 12:26 | 42.42038 | 10.84876 | 29162 ft | 479 kts | 141° |
| 2026-05-07 12:26 | 42.39767 | 10.88156 | 29507 ft | 479 kts | 141° |
| 2026-05-07 12:26 | 42.37491 | 10.91439 | 29804 ft | 479 kts | 141° |
| 2026-05-07 12:26 | 42.35199 | 10.94749 | 30076 ft | 481 kts | 141° |
| 2026-05-07 12:27 | 42.32945 | 10.98006 | 30379 ft | 481 kts | 141° |
| 2026-05-07 12:27 | 42.30671 | 11.01290 | 30720 ft | 480 kts | 141° |
| 2026-05-07 12:27 | 42.28394 | 11.04572 | 31006 ft | 479 kts | 141° |
| 2026-05-07 12:28 | 42.23844 | 11.11115 | 31024 ft | 478 kts | 141° |
| 2026-05-07 12:28 | 42.19279 | 11.17660 | 31024 ft | 480 kts | 141° |
| 2026-05-07 12:29 | 42.14703 | 11.24204 | 31025 ft | 481 kts | 141° |
| 2026-05-07 12:29 | 42.10142 | 11.30710 | 31023 ft | 481 kts | 141° |
| 2026-05-07 12:30 | 42.05539 | 11.37262 | 31024 ft | 482 kts | 141° |
| 2026-05-07 12:30 | 42.00936 | 11.43818 | 31025 ft | 483 kts | 141° |
| 2026-05-07 12:31 | 41.96356 | 11.50322 | 31024 ft | 483 kts | 141° |
| 2026-05-07 12:31 | 41.91717 | 11.56883 | 31025 ft | 483 kts | 141° |
| 2026-05-07 12:32 | 41.87091 | 11.63389 | 31024 ft | 484 kts | 141° |
| 2026-05-07 12:32 | 41.82466 | 11.69891 | 31023 ft | 484 kts | 142° |
| 2026-05-07 12:33 | 41.75514 | 11.79718 | 31025 ft | 484 kts | 141° |
| 2026-05-07 12:33 | 41.70896 | 11.86231 | 31021 ft | 484 kts | 141° |
| 2026-05-07 12:34 | 41.66275 | 11.92704 | 31015 ft | 484 kts | 142° |
| 2026-05-07 12:34 | 41.61620 | 11.99181 | 31009 ft | 484 kts | 142° |
| 2026-05-07 12:35 | 41.56964 | 12.05638 | 31003 ft | 484 kts | 142° |
| 2026-05-07 12:35 | 41.52302 | 12.12095 | 31001 ft | 485 kts | 142° |
| 2026-05-07 12:36 | 41.47631 | 12.18558 | 30998 ft | 484 kts | 142° |
| 2026-05-07 12:36 | 41.42983 | 12.24995 | 30998 ft | 484 kts | 142° |
| 2026-05-07 12:37 | 41.38311 | 12.31440 | 30998 ft | 484 kts | 142° |
| 2026-05-07 12:37 | 41.33650 | 12.37855 | 30998 ft | 483 kts | 142° |
| 2026-05-07 12:38 | 41.29006 | 12.44233 | 30999 ft | 484 kts | 141° |
| 2026-05-07 12:38 | 41.24315 | 12.50657 | 30998 ft | 484 kts | 141° |
| 2026-05-07 12:39 | 41.19630 | 12.57070 | 30998 ft | 484 kts | 141° |
| 2026-05-07 12:39 | 41.14981 | 12.63429 | 30998 ft | 484 kts | 141° |
| 2026-05-07 12:40 | 41.10274 | 12.69868 | 30997 ft | 483 kts | 142° |
| 2026-05-07 12:40 | 41.05621 | 12.76215 | 30998 ft | 483 kts | 142° |
| 2026-05-07 12:41 | 41.00924 | 12.82580 | 30998 ft | 483 kts | 142° |
| 2026-05-07 12:41 | 40.96259 | 12.88910 | 30997 ft | 485 kts | 140° |
| 2026-05-07 12:42 | 40.92115 | 12.96079 | 30994 ft | 496 kts | 128° |
| 2026-05-07 12:42 | 40.89117 | 13.04382 | 30999 ft | 506 kts | 114° |
| 2026-05-07 12:43 | 40.87012 | 13.13203 | 31000 ft | 507 kts | 111° |
| 2026-05-07 12:43 | 40.84985 | 13.22110 | 30998 ft | 507 kts | 111° |
| 2026-05-07 12:44 | 40.82917 | 13.31016 | 30998 ft | 507 kts | 111° |
| 2026-05-07 12:44 | 40.80838 | 13.39850 | 30999 ft | 507 kts | 111° |
| 2026-05-07 12:45 | 40.78736 | 13.48723 | 30997 ft | 508 kts | 111° |
| 2026-05-07 12:45 | 40.76633 | 13.57570 | 30998 ft | 508 kts | 111° |
| 2026-05-07 12:46 | 40.74506 | 13.66486 | 30996 ft | 507 kts | 112° |
| 2026-05-07 12:46 | 40.72435 | 13.75165 | 30998 ft | 508 kts | 112° |
| 2026-05-07 12:47 | 40.70308 | 13.84011 | 30998 ft | 508 kts | 112° |
| 2026-05-07 12:47 | 40.68164 | 13.92891 | 30998 ft | 508 kts | 112° |
| 2026-05-07 12:48 | 40.66026 | 14.01721 | 30996 ft | 508 kts | 112° |
| 2026-05-07 12:48 | 40.63869 | 14.10563 | 30847 ft | 509 kts | 112° |
| 2026-05-07 12:49 | 40.62797 | 14.14952 | 30595 ft | 497 kts | 111° |
| 2026-05-07 12:49 | 40.61759 | 14.19212 | 30336 ft | 474 kts | 112° |
| 2026-05-07 12:49 | 40.60783 | 14.23214 | 30085 ft | 453 kts | 112° |
| 2026-05-07 12:49 | 40.59868 | 14.27085 | 29829 ft | 435 kts | 108° |
| 2026-05-07 12:50 | 40.59209 | 14.30963 | 29586 ft | 434 kts | 102° |
| 2026-05-07 12:50 | 40.58858 | 14.34892 | 29340 ft | 436 kts | 95° |
| 2026-05-07 12:50 | 40.58827 | 14.38880 | 29094 ft | 437 kts | 88° |
| 2026-05-07 12:50 | 40.59106 | 14.42840 | 28852 ft | 436 kts | 83° |
| 2026-05-07 12:51 | 40.59524 | 14.46711 | 28604 ft | 427 kts | 82° |
| 2026-05-07 12:51 | 40.59961 | 14.50549 | 28355 ft | 422 kts | 82° |
| 2026-05-07 12:51 | 40.60386 | 14.54386 | 28107 ft | 422 kts | 82° |
| 2026-05-07 12:51 | 40.60790 | 14.58164 | 27862 ft | 421 kts | 83° |
| 2026-05-07 12:52 | 40.61187 | 14.61972 | 27585 ft | 421 kts | 83° |
| 2026-05-07 12:52 | 40.61577 | 14.65773 | 27156 ft | 423 kts | 84° |
| 2026-05-07 12:52 | 40.61975 | 14.69691 | 26347 ft | 430 kts | 84° |
| 2026-05-07 12:52 | 40.62366 | 14.73560 | 25991 ft | 425 kts | 84° |
| 2026-05-07 12:53 | 40.62750 | 14.77375 | 25532 ft | 423 kts | 84° |
| 2026-05-07 12:53 | 40.63133 | 14.81194 | 25231 ft | 416 kts | 84° |
| 2026-05-07 12:53 | 40.63504 | 14.84908 | 24942 ft | 409 kts | 84° |
| 2026-05-07 12:53 | 40.63873 | 14.88604 | 24602 ft | 404 kts | 84° |
| 2026-05-07 12:54 | 40.64238 | 14.92253 | 24217 ft | 400 kts | 85° |
| 2026-05-07 12:54 | 40.64601 | 14.95870 | 23806 ft | 398 kts | 85° |
| 2026-05-07 12:54 | 40.64959 | 14.99472 | 23391 ft | 395 kts | 85° |
| 2026-05-07 12:54 | 40.65313 | 15.03051 | 22977 ft | 393 kts | 85° |
| 2026-05-07 12:55 | 40.65660 | 15.06581 | 22565 ft | 390 kts | 85° |
| 2026-05-07 12:55 | 40.66005 | 15.10089 | 22151 ft | 380 kts | 85° |
| 2026-05-07 12:55 | 40.66340 | 15.13508 | 21754 ft | 383 kts | 85° |
| 2026-05-07 12:55 | 40.66679 | 15.17006 | 21335 ft | 381 kts | 85° |
| 2026-05-07 12:56 | 40.67012 | 15.20428 | 20924 ft | 379 kts | 85° |
| 2026-05-07 12:56 | 40.67344 | 15.23859 | 20510 ft | 377 kts | 85° |
| 2026-05-07 12:56 | 40.67677 | 15.27311 | 20083 ft | 375 kts | 85° |
| 2026-05-07 12:56 | 40.68003 | 15.30690 | 19654 ft | 373 kts | 85° |
| 2026-05-07 12:57 | 40.68323 | 15.34034 | 19231 ft | 372 kts | 85° |
| 2026-05-07 12:57 | 40.68644 | 15.37406 | 18803 ft | 370 kts | 85° |
| 2026-05-07 12:57 | 40.68966 | 15.40778 | 18379 ft | 368 kts | 85° |
| 2026-05-07 12:57 | 40.69283 | 15.44107 | 17958 ft | 366 kts | 85° |
| 2026-05-07 12:58 | 40.69595 | 15.47403 | 17543 ft | 364 kts | 85° |
| 2026-05-07 12:58 | 40.69903 | 15.50689 | 17128 ft | 362 kts | 85° |
| 2026-05-07 12:58 | 40.70213 | 15.54008 | 16708 ft | 362 kts | 85° |
| 2026-05-07 12:58 | 40.70515 | 15.57253 | 16289 ft | 362 kts | 85° |
| 2026-05-07 12:59 | 40.70822 | 15.60562 | 15861 ft | 361 kts | 85° |
| 2026-05-07 12:59 | 40.71156 | 15.63798 | 15433 ft | 355 kts | 82° |
| 2026-05-07 12:59 | 40.71651 | 15.66930 | 15028 ft | 341 kts | 78° |
| 2026-05-07 12:59 | 40.72308 | 15.69883 | 14626 ft | 327 kts | 73° |
| 2026-05-07 13:00 | 40.73097 | 15.72665 | 14236 ft | 325 kts | 70° |
| 2026-05-07 13:00 | 40.73934 | 15.75432 | 13844 ft | 326 kts | 70° |
| 2026-05-07 13:00 | 40.74773 | 15.78197 | 13451 ft | 325 kts | 70° |
| 2026-05-07 13:00 | 40.75604 | 15.80948 | 13057 ft | 323 kts | 70° |
| 2026-05-07 13:01 | 40.76432 | 15.83703 | 12663 ft | 322 kts | 71° |
| 2026-05-07 13:01 | 40.77253 | 15.86441 | 12269 ft | 320 kts | 71° |
| 2026-05-07 13:01 | 40.78065 | 15.89158 | 11876 ft | 319 kts | 71° |
| 2026-05-07 13:01 | 40.78873 | 15.91871 | 11483 ft | 317 kts | 70° |
| 2026-05-07 13:02 | 40.79671 | 15.94552 | 11092 ft | 315 kts | 70° |
| 2026-05-07 13:02 | 40.80471 | 15.97240 | 10697 ft | 314 kts | 70° |
| 2026-05-07 13:02 | 40.81260 | 15.99895 | 10570 ft | 310 kts | 70° |
| 2026-05-07 13:02 | 40.82050 | 16.02548 | 10553 ft | 315 kts | 70° |
| 2026-05-07 13:03 | 40.82850 | 16.05254 | 10545 ft | 313 kts | 70° |
| 2026-05-07 13:03 | 40.83606 | 16.07863 | 10532 ft | 298 kts | 70° |
| 2026-05-07 13:03 | 40.84325 | 16.10362 | 10495 ft | 285 kts | 71° |
| 2026-05-07 13:03 | 40.85022 | 16.12790 | 10235 ft | 280 kts | 70° |
| 2026-05-07 13:04 | 40.85706 | 16.15171 | 9984 ft | 275 kts | 70° |
| 2026-05-07 13:04 | 40.86419 | 16.17479 | 9731 ft | 271 kts | 60° |
| 2026-05-07 13:04 | 40.87719 | 16.19188 | 9469 ft | 266 kts | 24° |
| 2026-05-07 13:04 | 40.89465 | 16.19606 | 9231 ft | 257 kts | 348° |
| 2026-05-07 13:05 | 40.91129 | 16.18868 | 9038 ft | 248 kts | 335° |
| 2026-05-07 13:05 | 40.92655 | 16.17987 | 9044 ft | 228 kts | 335° |
| 2026-05-07 13:05 | 40.94046 | 16.17238 | 9002 ft | 209 kts | 340° |
| 2026-05-07 13:05 | 40.95409 | 16.17074 | 8979 ft | 188 kts | 9° |
| 2026-05-07 13:06 | 40.96589 | 16.17671 | 8995 ft | 179 kts | 34° |
| 2026-05-07 13:06 | 40.97428 | 16.18770 | 8868 ft | 168 kts | 58° |
| 2026-05-07 13:06 | 40.97913 | 16.20147 | 8442 ft | 166 kts | 72° |
| 2026-05-07 13:06 | 40.98299 | 16.21592 | 7988 ft | 166 kts | 72° |
| 2026-05-07 13:07 | 40.98692 | 16.23017 | 7566 ft | 165 kts | 71° |
| 2026-05-07 13:07 | 40.99094 | 16.24434 | 7147 ft | 164 kts | 71° |
| 2026-05-07 13:07 | 40.99493 | 16.25834 | 6844 ft | 163 kts | 71° |
| 2026-05-07 13:07 | 40.99897 | 16.27249 | 6623 ft | 163 kts | 71° |
| 2026-05-07 13:08 | 41.00298 | 16.28648 | 6438 ft | 163 kts | 71° |
| 2026-05-07 13:08 | 41.00701 | 16.30045 | 6245 ft | 162 kts | 71° |
| 2026-05-07 13:08 | 41.01097 | 16.31421 | 6051 ft | 161 kts | 71° |
| 2026-05-07 13:08 | 41.01498 | 16.32816 | 5856 ft | 159 kts | 71° |
| 2026-05-07 13:09 | 41.01895 | 16.34154 | 5488 ft | 157 kts | 69° |
| 2026-05-07 13:09 | 41.02318 | 16.35496 | 4995 ft | 159 kts | 69° |
| 2026-05-07 13:09 | 41.02732 | 16.36834 | 4530 ft | 158 kts | 70° |
| 2026-05-07 13:09 | 41.03139 | 16.38177 | 4075 ft | 157 kts | 70° |
| 2026-05-07 13:10 | 41.03538 | 16.39518 | 3622 ft | 156 kts | 70° |
| 2026-05-07 13:10 | 41.03928 | 16.40846 | 3174 ft | 155 kts | 71° |
| 2026-05-07 13:10 | 41.04306 | 16.42151 | 3030 ft | 153 kts | 71° |
| 2026-05-07 13:10 | 41.04690 | 16.43489 | 3017 ft | 155 kts | 71° |
| 2026-05-07 13:11 | 41.05074 | 16.44834 | 3017 ft | 155 kts | 71° |
| 2026-05-07 13:11 | 41.05456 | 16.46182 | 3006 ft | 155 kts | 71° |
| 2026-05-07 13:11 | 41.05832 | 16.47514 | 3005 ft | 155 kts | 71° |
| 2026-05-07 13:11 | 41.06207 | 16.48850 | 3010 ft | 155 kts | 72° |
| 2026-05-07 13:12 | 41.06584 | 16.50199 | 3009 ft | 155 kts | 71° |
| 2026-05-07 13:12 | 41.06958 | 16.51538 | 3013 ft | 155 kts | 71° |
| 2026-05-07 13:12 | 41.07335 | 16.52884 | 3000 ft | 155 kts | 72° |
| 2026-05-07 13:12 | 41.07712 | 16.54227 | 3015 ft | 155 kts | 71° |
| 2026-05-07 13:13 | 41.08088 | 16.55567 | 3006 ft | 155 kts | 71° |
| 2026-05-07 13:13 | 41.08465 | 16.56910 | 2872 ft | 156 kts | 72° |
| 2026-05-07 13:13 | 41.08841 | 16.58254 | 2667 ft | 154 kts | 72° |
| 2026-05-07 13:13 | 41.09209 | 16.59577 | 2482 ft | 154 kts | 71° |
| 2026-05-07 13:14 | 41.09582 | 16.60912 | 2281 ft | 154 kts | 72° |
| 2026-05-07 13:14 | 41.09954 | 16.62234 | 2064 ft | 152 kts | 72° |
| 2026-05-07 13:14 | 41.10328 | 16.63547 | 1861 ft | 152 kts | 71° |
| 2026-05-07 13:14 | 41.10705 | 16.64861 | 1669 ft | 153 kts | 71° |
| 2026-05-07 13:15 | 41.11023 | 16.65989 | 1498 ft | 152 kts | 73° |
| 2026-05-07 13:15 | 41.11397 | 16.67335 | 1292 ft | 152 kts | 72° |
| 2026-05-07 13:15 | 41.11765 | 16.68644 | 1099 ft | 151 kts | 73° |
| 2026-05-07 13:15 | 41.12131 | 16.69951 | 893 ft | 150 kts | 73° |
| 2026-05-07 13:16 | 41.12495 | 16.71244 | 684 ft | 149 kts | 72° |
| 2026-05-07 13:16 | 41.12861 | 16.72544 | 495 ft | 152 kts | 72° |
| 2026-05-07 13:16 | 41.13231 | 16.73859 | 289 ft | 151 kts | 71° |
| 2026-05-07 13:16 | 41.13586 | 16.75113 | 168 ft | 134 kts | 72° |
| 2026-05-07 13:17 | 41.13881 | 16.76166 | 140 ft | 101 kts | 69° |
| 2026-05-07 13:17 | 41.13979 | 16.76549 | 131 ft | 21 kts | 87° |
| 2026-05-07 13:17 | 41.13983 | 16.76657 | 131 ft | 0 kts | 88° |
| 2026-05-07 13:17 | 41.13977 | 16.76685 | 130 ft | 2 kts | 114° |
| 2026-05-07 13:18 | 41.13953 | 16.76712 | 130 ft | 9 kts | 165° |
| 2026-05-07 13:18 | 41.13894 | 16.76669 | 132 ft | 9 kts | 221° |
| 2026-05-07 13:18 | 41.13844 | 16.76618 | 134 ft | 8 kts | 215° |
| 2026-05-07 13:18 | 41.13798 | 16.76575 | 136 ft | 7 kts | 215° |
| 2026-05-07 13:19 | 41.13752 | 16.76551 | 138 ft | 7 kts | 161° |
| 2026-05-07 13:19 | 41.13704 | 16.76570 | 138 ft | 7 kts | 225° |
| 2026-05-07 13:19 | 41.13675 | 16.76514 | 140 ft | 7 kts | 236° |
| 2026-05-07 13:19 | 41.13643 | 16.76469 | 141 ft | 6 kts | 194° |
| 2026-05-07 13:20 | 41.13602 | 16.76498 | 142 ft | 8 kts | 143° |
| 2026-05-07 13:20 | 41.13579 | 16.76513 | 142 ft | 0 kts | 161° |